DEOXM EDDH-EDDG
Flight info
| Callsign | DEOXM |
|---|---|
| Flight time | 1h 20m |
| Altitude | 8000 |
| Route | HABFU1G HABFU Y348 MAWEQ Z718 OSNAD |
| Aircraft | C172/L-SDFGRYS/C |
Departure
| Time | 2026-04-25 16:31 |
|---|---|
| Airport | Hamburg Helmut Schmidt Airport (EDDH) |
Arrival
| Time | 2026-04-25 17:52 |
|---|---|
| Airport | Münster Osnabrück Airport (EDDG) |
| Time | Latitude | Longitude | Altitude | Speed | Heading |
|---|---|---|---|---|---|
| 2026-04-25 16:18 | 53.62400 | 9.99398 | 40 ft | 0 kts | 359° |
| 2026-04-25 16:26 | 53.62404 | 9.99397 | 40 ft | 2 kts | 325° |
| 2026-04-25 16:27 | 53.62402 | 9.99341 | 40 ft | 7 kts | 262° |
| 2026-04-25 16:27 | 53.62416 | 9.99241 | 40 ft | 11 kts | 313° |
| 2026-04-25 16:27 | 53.62480 | 9.99222 | 40 ft | 8 kts | 359° |
| 2026-04-25 16:27 | 53.62515 | 9.99222 | 40 ft | 0 kts | 5° |
| 2026-04-25 16:28 | 53.62522 | 9.99222 | 40 ft | 7 kts | 358° |
| 2026-04-25 16:29 | 53.62589 | 9.99305 | 40 ft | 19 kts | 78° |
| 2026-04-25 16:29 | 53.62613 | 9.99531 | 41 ft | 15 kts | 80° |
| 2026-04-25 16:29 | 53.62631 | 9.99682 | 41 ft | 11 kts | 79° |
| 2026-04-25 16:29 | 53.62644 | 9.99783 | 42 ft | 7 kts | 71° |
| 2026-04-25 16:30 | 53.62661 | 9.99837 | 43 ft | 4 kts | 59° |
| 2026-04-25 16:30 | 53.62687 | 9.99897 | 43 ft | 6 kts | 28° |
| 2026-04-25 16:30 | 53.62726 | 9.99866 | 43 ft | 16 kts | 335° |
| 2026-04-25 16:30 | 53.62987 | 9.99636 | 40 ft | 66 kts | 332° |
| 2026-04-25 16:31 | 53.63462 | 9.99240 | 183 ft | 76 kts | 334° |
| 2026-04-25 16:31 | 53.63942 | 9.98896 | 403 ft | 74 kts | 336° |
| 2026-04-25 16:31 | 53.64438 | 9.98553 | 569 ft | 79 kts | 333° |
| 2026-04-25 16:31 | 53.64938 | 9.98111 | 749 ft | 84 kts | 329° |
| 2026-04-25 16:32 | 53.65440 | 9.97648 | 989 ft | 83 kts | 327° |
| 2026-04-25 16:32 | 53.65925 | 9.97138 | 1228 ft | 80 kts | 328° |
| 2026-04-25 16:32 | 53.66445 | 9.96711 | 1419 ft | 84 kts | 329° |
| 2026-04-25 16:32 | 53.66966 | 9.96255 | 1635 ft | 85 kts | 330° |
| 2026-04-25 16:33 | 53.67490 | 9.95798 | 1845 ft | 85 kts | 331° |
| 2026-04-25 16:33 | 53.68017 | 9.95342 | 2055 ft | 85 kts | 332° |
| 2026-04-25 16:33 | 53.68547 | 9.94884 | 2246 ft | 88 kts | 332° |
| 2026-04-25 16:33 | 53.69105 | 9.94405 | 2418 ft | 90 kts | 331° |
| 2026-04-25 16:34 | 53.69667 | 9.93922 | 2603 ft | 90 kts | 331° |
| 2026-04-25 16:34 | 53.70229 | 9.93440 | 2782 ft | 91 kts | 331° |
| 2026-04-25 16:34 | 53.70793 | 9.92956 | 2959 ft | 91 kts | 331° |
| 2026-04-25 16:34 | 53.71357 | 9.92469 | 3133 ft | 91 kts | 329° |
| 2026-04-25 16:35 | 53.71729 | 9.91665 | 3302 ft | 89 kts | 287° |
| 2026-04-25 16:35 | 53.71712 | 9.90638 | 3464 ft | 90 kts | 250° |
| 2026-04-25 16:35 | 53.71518 | 9.89645 | 3659 ft | 87 kts | 253° |
| 2026-04-25 16:35 | 53.71328 | 9.88692 | 3840 ft | 86 kts | 253° |
| 2026-04-25 16:36 | 53.71140 | 9.87732 | 4011 ft | 86 kts | 253° |
| 2026-04-25 16:36 | 53.71077 | 9.87408 | 4076 ft | 86 kts | 252° |
| 2026-04-25 16:36 | 53.70762 | 9.85812 | 4342 ft | 86 kts | 253° |
| 2026-04-25 16:36 | 53.70571 | 9.84848 | 4502 ft | 87 kts | 253° |
| 2026-04-25 16:37 | 53.70381 | 9.83885 | 4653 ft | 87 kts | 253° |
| 2026-04-25 16:37 | 53.70191 | 9.82917 | 4802 ft | 87 kts | 252° |
| 2026-04-25 16:37 | 53.69999 | 9.81946 | 4949 ft | 87 kts | 252° |
| 2026-04-25 16:37 | 53.69808 | 9.80973 | 5094 ft | 87 kts | 253° |
| 2026-04-25 16:38 | 53.69616 | 9.79991 | 5214 ft | 91 kts | 253° |
| 2026-04-25 16:38 | 53.69410 | 9.78927 | 5283 ft | 97 kts | 253° |
| 2026-04-25 16:38 | 53.69196 | 9.77843 | 5406 ft | 97 kts | 253° |
| 2026-04-25 16:38 | 53.68982 | 9.76756 | 5537 ft | 98 kts | 253° |
| 2026-04-25 16:39 | 53.68768 | 9.75667 | 5663 ft | 98 kts | 253° |
| 2026-04-25 16:39 | 53.68552 | 9.74576 | 5785 ft | 98 kts | 253° |
| 2026-04-25 16:39 | 53.68337 | 9.73484 | 5905 ft | 98 kts | 253° |
| 2026-04-25 16:39 | 53.68121 | 9.72390 | 6025 ft | 98 kts | 253° |
| 2026-04-25 16:40 | 53.67905 | 9.71291 | 6143 ft | 99 kts | 252° |
| 2026-04-25 16:40 | 53.67688 | 9.70192 | 6262 ft | 99 kts | 252° |
| 2026-04-25 16:40 | 53.67474 | 9.69104 | 6368 ft | 99 kts | 253° |
| 2026-04-25 16:40 | 53.67256 | 9.68002 | 6483 ft | 99 kts | 253° |
| 2026-04-25 16:41 | 53.67037 | 9.66898 | 6594 ft | 99 kts | 253° |
| 2026-04-25 16:41 | 53.66963 | 9.66525 | 6629 ft | 99 kts | 252° |
| 2026-04-25 16:41 | 53.66378 | 9.63572 | 6913 ft | 100 kts | 253° |
| 2026-04-25 16:42 | 53.66157 | 9.62458 | 7012 ft | 100 kts | 252° |
| 2026-04-25 16:42 | 53.65937 | 9.61343 | 7112 ft | 100 kts | 252° |
| 2026-04-25 16:42 | 53.65715 | 9.60227 | 7221 ft | 100 kts | 252° |
| 2026-04-25 16:42 | 53.65494 | 9.59111 | 7323 ft | 100 kts | 253° |
| 2026-04-25 16:43 | 53.65218 | 9.58033 | 7419 ft | 102 kts | 232° |
| 2026-04-25 16:43 | 53.64630 | 9.57371 | 7526 ft | 102 kts | 211° |
| 2026-04-25 16:43 | 53.64005 | 9.56788 | 7620 ft | 103 kts | 211° |
| 2026-04-25 16:43 | 53.63382 | 9.56216 | 7715 ft | 103 kts | 211° |
| 2026-04-25 16:44 | 53.62753 | 9.55639 | 7807 ft | 103 kts | 211° |
| 2026-04-25 16:44 | 53.62120 | 9.55058 | 7901 ft | 103 kts | 211° |
| 2026-04-25 16:44 | 53.61489 | 9.54479 | 7994 ft | 103 kts | 211° |
| 2026-04-25 16:44 | 53.60834 | 9.53876 | 8005 ft | 110 kts | 211° |
| 2026-04-25 16:45 | 53.60145 | 9.53243 | 8011 ft | 115 kts | 211° |
| 2026-04-25 16:45 | 53.59433 | 9.52589 | 8009 ft | 118 kts | 211° |
| 2026-04-25 16:45 | 53.58707 | 9.51924 | 8010 ft | 119 kts | 211° |
| 2026-04-25 16:45 | 53.57976 | 9.51253 | 8011 ft | 120 kts | 211° |
| 2026-04-25 16:46 | 53.57238 | 9.50578 | 8009 ft | 121 kts | 211° |
| 2026-04-25 16:46 | 53.56499 | 9.49901 | 8009 ft | 121 kts | 211° |
| 2026-04-25 16:46 | 53.55768 | 9.49234 | 8009 ft | 121 kts | 211° |
| 2026-04-25 16:46 | 53.55520 | 9.49005 | 8009 ft | 121 kts | 211° |
| 2026-04-25 16:47 | 53.54288 | 9.47880 | 8009 ft | 121 kts | 211° |
| 2026-04-25 16:47 | 53.53788 | 9.47422 | 8009 ft | 121 kts | 211° |
| 2026-04-25 16:47 | 53.52808 | 9.46527 | 8008 ft | 121 kts | 211° |
| 2026-04-25 16:47 | 53.52064 | 9.45848 | 8009 ft | 121 kts | 211° |
| 2026-04-25 16:48 | 53.51574 | 9.45401 | 8008 ft | 121 kts | 211° |
| 2026-04-25 16:48 | 53.50832 | 9.44725 | 8008 ft | 121 kts | 211° |
| 2026-04-25 16:48 | 53.50087 | 9.44045 | 8008 ft | 121 kts | 211° |
| 2026-04-25 16:48 | 53.49346 | 9.43369 | 8008 ft | 121 kts | 211° |
| 2026-04-25 16:49 | 53.48604 | 9.42692 | 8007 ft | 121 kts | 211° |
| 2026-04-25 16:49 | 53.47864 | 9.42018 | 8007 ft | 121 kts | 211° |
| 2026-04-25 16:49 | 53.47119 | 9.41341 | 8007 ft | 121 kts | 211° |
| 2026-04-25 16:49 | 53.46377 | 9.40665 | 8007 ft | 121 kts | 211° |
| 2026-04-25 16:50 | 53.45633 | 9.39989 | 8007 ft | 121 kts | 211° |
| 2026-04-25 16:50 | 53.44894 | 9.39315 | 8003 ft | 119 kts | 211° |
| 2026-04-25 16:50 | 53.44178 | 9.38664 | 7994 ft | 115 kts | 211° |
| 2026-04-25 16:50 | 53.43483 | 9.38035 | 7992 ft | 112 kts | 211° |
| 2026-04-25 16:51 | 53.42812 | 9.37424 | 7992 ft | 111 kts | 211° |
| 2026-04-25 16:51 | 53.42138 | 9.36812 | 7993 ft | 110 kts | 211° |
| 2026-04-25 16:51 | 53.41470 | 9.36205 | 7994 ft | 108 kts | 211° |
| 2026-04-25 16:51 | 53.41021 | 9.35799 | 7993 ft | 108 kts | 211° |
| 2026-04-25 16:52 | 53.40144 | 9.35002 | 7992 ft | 108 kts | 211° |
| 2026-04-25 16:52 | 53.39484 | 9.34404 | 7994 ft | 108 kts | 211° |
| 2026-04-25 16:52 | 53.38823 | 9.33805 | 7994 ft | 108 kts | 211° |
| 2026-04-25 16:52 | 53.38162 | 9.33206 | 7993 ft | 108 kts | 211° |
| 2026-04-25 16:53 | 53.36839 | 9.32006 | 7993 ft | 108 kts | 211° |
| 2026-04-25 16:53 | 53.36177 | 9.31407 | 7993 ft | 108 kts | 211° |
| 2026-04-25 16:53 | 53.35515 | 9.30807 | 7992 ft | 108 kts | 211° |
| 2026-04-25 16:54 | 53.34855 | 9.30211 | 7992 ft | 108 kts | 211° |
| 2026-04-25 16:54 | 53.34196 | 9.29615 | 7995 ft | 108 kts | 211° |
| 2026-04-25 16:54 | 53.33537 | 9.29020 | 7995 ft | 108 kts | 211° |
| 2026-04-25 16:54 | 53.32878 | 9.28424 | 7994 ft | 108 kts | 211° |
| 2026-04-25 16:55 | 53.32210 | 9.27897 | 7988 ft | 109 kts | 195° |
| 2026-04-25 16:55 | 53.31463 | 9.27695 | 7999 ft | 108 kts | 194° |
| 2026-04-25 16:55 | 53.30719 | 9.27470 | 7999 ft | 109 kts | 193° |
| 2026-04-25 16:55 | 53.29974 | 9.27248 | 8000 ft | 109 kts | 193° |
| 2026-04-25 16:56 | 53.29227 | 9.27026 | 8000 ft | 109 kts | 193° |
| 2026-04-25 16:56 | 53.28481 | 9.26802 | 8000 ft | 109 kts | 193° |
| 2026-04-25 16:56 | 53.27733 | 9.26578 | 8000 ft | 109 kts | 193° |
| 2026-04-25 16:56 | 53.26986 | 9.26355 | 7999 ft | 109 kts | 193° |
| 2026-04-25 16:57 | 53.26249 | 9.26135 | 7999 ft | 109 kts | 193° |
| 2026-04-25 16:57 | 53.25745 | 9.25986 | 7999 ft | 109 kts | 193° |
| 2026-04-25 16:57 | 53.24758 | 9.25692 | 7999 ft | 109 kts | 193° |
| 2026-04-25 16:57 | 53.24012 | 9.25470 | 7998 ft | 109 kts | 193° |
| 2026-04-25 16:58 | 53.23266 | 9.25247 | 7999 ft | 109 kts | 193° |
| 2026-04-25 16:58 | 53.22516 | 9.25023 | 7999 ft | 109 kts | 192° |
| 2026-04-25 16:58 | 53.21769 | 9.24800 | 7998 ft | 109 kts | 193° |
| 2026-04-25 16:58 | 53.21022 | 9.24578 | 7998 ft | 109 kts | 193° |
| 2026-04-25 16:59 | 53.20275 | 9.24356 | 7998 ft | 109 kts | 193° |
| 2026-04-25 16:59 | 53.19529 | 9.24135 | 7998 ft | 109 kts | 193° |
| 2026-04-25 16:59 | 53.18781 | 9.23913 | 7998 ft | 109 kts | 193° |
| 2026-04-25 16:59 | 53.18044 | 9.23693 | 7997 ft | 109 kts | 192° |
| 2026-04-25 17:00 | 53.17297 | 9.23471 | 7997 ft | 109 kts | 193° |
| 2026-04-25 17:00 | 53.16551 | 9.23249 | 7997 ft | 109 kts | 193° |
| 2026-04-25 17:00 | 53.15805 | 9.23027 | 7997 ft | 109 kts | 193° |
| 2026-04-25 17:00 | 53.15058 | 9.22806 | 7997 ft | 109 kts | 193° |
| 2026-04-25 17:01 | 53.14312 | 9.22586 | 7997 ft | 109 kts | 193° |
| 2026-04-25 17:01 | 53.13565 | 9.22365 | 7996 ft | 109 kts | 193° |
| 2026-04-25 17:01 | 53.12827 | 9.22145 | 7997 ft | 109 kts | 193° |
| 2026-04-25 17:01 | 53.12079 | 9.21923 | 7997 ft | 109 kts | 192° |
| 2026-04-25 17:02 | 53.11332 | 9.21701 | 7997 ft | 109 kts | 193° |
| 2026-04-25 17:02 | 53.10582 | 9.21479 | 7997 ft | 109 kts | 193° |
| 2026-04-25 17:02 | 53.09835 | 9.21259 | 7997 ft | 109 kts | 193° |
| 2026-04-25 17:02 | 53.09337 | 9.21112 | 7996 ft | 109 kts | 193° |
| 2026-04-25 17:03 | 53.08336 | 9.20816 | 7996 ft | 109 kts | 193° |
| 2026-04-25 17:03 | 53.07588 | 9.20595 | 7996 ft | 109 kts | 193° |
| 2026-04-25 17:03 | 53.06839 | 9.20373 | 7995 ft | 109 kts | 192° |
| 2026-04-25 17:03 | 53.06091 | 9.20152 | 7995 ft | 109 kts | 192° |
| 2026-04-25 17:04 | 53.05344 | 9.19930 | 7995 ft | 109 kts | 192° |
| 2026-04-25 17:04 | 53.04598 | 9.19710 | 7994 ft | 109 kts | 193° |
| 2026-04-25 17:04 | 53.03854 | 9.19490 | 7994 ft | 109 kts | 193° |
| 2026-04-25 17:04 | 53.03108 | 9.19270 | 7993 ft | 109 kts | 193° |
| 2026-04-25 17:05 | 53.02373 | 9.19054 | 7993 ft | 109 kts | 193° |
| 2026-04-25 17:05 | 53.00882 | 9.18615 | 7993 ft | 109 kts | 193° |
| 2026-04-25 17:05 | 53.00137 | 9.18395 | 7993 ft | 109 kts | 192° |
| 2026-04-25 17:06 | 52.99390 | 9.18174 | 7993 ft | 109 kts | 192° |
| 2026-04-25 17:06 | 52.98644 | 9.17954 | 7994 ft | 109 kts | 193° |
| 2026-04-25 17:06 | 52.97896 | 9.17734 | 7993 ft | 109 kts | 193° |
| 2026-04-25 17:06 | 52.97150 | 9.17515 | 7993 ft | 109 kts | 193° |
| 2026-04-25 17:07 | 52.96403 | 9.17296 | 7992 ft | 109 kts | 193° |
| 2026-04-25 17:07 | 52.95657 | 9.17076 | 7992 ft | 109 kts | 193° |
| 2026-04-25 17:07 | 52.94924 | 9.16788 | 7995 ft | 107 kts | 209° |
| 2026-04-25 17:07 | 52.94274 | 9.16192 | 8000 ft | 107 kts | 209° |
| 2026-04-25 17:08 | 52.93615 | 9.15614 | 8001 ft | 107 kts | 210° |
| 2026-04-25 17:08 | 52.92955 | 9.15033 | 8002 ft | 107 kts | 210° |
| 2026-04-25 17:08 | 52.92301 | 9.14458 | 8001 ft | 108 kts | 210° |
| 2026-04-25 17:08 | 52.91639 | 9.13876 | 8001 ft | 108 kts | 211° |
| 2026-04-25 17:09 | 52.90976 | 9.13294 | 8001 ft | 108 kts | 210° |
| 2026-04-25 17:09 | 52.90313 | 9.12712 | 8001 ft | 108 kts | 210° |
| 2026-04-25 17:09 | 52.89652 | 9.12130 | 8001 ft | 108 kts | 210° |
| 2026-04-25 17:09 | 52.88990 | 9.11548 | 8000 ft | 108 kts | 210° |
| 2026-04-25 17:10 | 52.88327 | 9.10966 | 8000 ft | 108 kts | 210° |
| 2026-04-25 17:10 | 52.87667 | 9.10387 | 8000 ft | 107 kts | 211° |
| 2026-04-25 17:10 | 52.87006 | 9.09808 | 8000 ft | 108 kts | 211° |
| 2026-04-25 17:10 | 52.86344 | 9.09228 | 8000 ft | 108 kts | 211° |
| 2026-04-25 17:11 | 52.85682 | 9.08647 | 8000 ft | 108 kts | 210° |
| 2026-04-25 17:11 | 52.85019 | 9.08066 | 8000 ft | 108 kts | 210° |
| 2026-04-25 17:11 | 52.84355 | 9.07484 | 8000 ft | 108 kts | 210° |
| 2026-04-25 17:11 | 52.83692 | 9.06903 | 8000 ft | 108 kts | 210° |
| 2026-04-25 17:12 | 52.83029 | 9.06322 | 8000 ft | 108 kts | 210° |
| 2026-04-25 17:12 | 52.82374 | 9.05749 | 7999 ft | 108 kts | 210° |
| 2026-04-25 17:12 | 52.81710 | 9.05170 | 7999 ft | 108 kts | 210° |
| 2026-04-25 17:12 | 52.81047 | 9.04590 | 7999 ft | 108 kts | 210° |
| 2026-04-25 17:13 | 52.80384 | 9.04010 | 7999 ft | 108 kts | 210° |
| 2026-04-25 17:13 | 52.80159 | 9.03813 | 7998 ft | 108 kts | 210° |
| 2026-04-25 17:13 | 52.79059 | 9.02852 | 7998 ft | 108 kts | 210° |
| 2026-04-25 17:13 | 52.78398 | 9.02274 | 7998 ft | 108 kts | 210° |
| 2026-04-25 17:14 | 52.77735 | 9.01695 | 7998 ft | 108 kts | 210° |
| 2026-04-25 17:14 | 52.77072 | 9.01117 | 7998 ft | 108 kts | 210° |
| 2026-04-25 17:14 | 52.76408 | 9.00537 | 7998 ft | 108 kts | 210° |
| 2026-04-25 17:14 | 52.75752 | 8.99966 | 7998 ft | 108 kts | 210° |
| 2026-04-25 17:15 | 52.75087 | 8.99387 | 7998 ft | 108 kts | 210° |
| 2026-04-25 17:15 | 52.74423 | 8.98808 | 7997 ft | 108 kts | 210° |
| 2026-04-25 17:15 | 52.73760 | 8.98230 | 7997 ft | 108 kts | 210° |
| 2026-04-25 17:15 | 52.73095 | 8.97650 | 7997 ft | 108 kts | 210° |
| 2026-04-25 17:16 | 52.72433 | 8.97073 | 7997 ft | 108 kts | 210° |
| 2026-04-25 17:16 | 52.71769 | 8.96496 | 7996 ft | 108 kts | 210° |
| 2026-04-25 17:16 | 52.71106 | 8.95920 | 7996 ft | 108 kts | 210° |
| 2026-04-25 17:16 | 52.70443 | 8.95344 | 7996 ft | 108 kts | 210° |
| 2026-04-25 17:17 | 52.69779 | 8.94766 | 7996 ft | 108 kts | 210° |
| 2026-04-25 17:17 | 52.69122 | 8.94195 | 7996 ft | 108 kts | 210° |
| 2026-04-25 17:17 | 52.68459 | 8.93618 | 7996 ft | 108 kts | 210° |
| 2026-04-25 17:17 | 52.67794 | 8.93041 | 7996 ft | 108 kts | 210° |
| 2026-04-25 17:18 | 52.67130 | 8.92464 | 7995 ft | 108 kts | 210° |
| 2026-04-25 17:18 | 52.66466 | 8.91889 | 7995 ft | 108 kts | 210° |
| 2026-04-25 17:18 | 52.65803 | 8.91313 | 7994 ft | 108 kts | 210° |
| 2026-04-25 17:18 | 52.65141 | 8.90740 | 7994 ft | 108 kts | 210° |
| 2026-04-25 17:19 | 52.64479 | 8.90166 | 7994 ft | 108 kts | 210° |
| 2026-04-25 17:19 | 52.63816 | 8.89590 | 7994 ft | 108 kts | 210° |
| 2026-04-25 17:19 | 52.63153 | 8.89014 | 7995 ft | 108 kts | 210° |
| 2026-04-25 17:19 | 52.62488 | 8.88439 | 7995 ft | 108 kts | 210° |
| 2026-04-25 17:20 | 52.61822 | 8.87863 | 7995 ft | 108 kts | 210° |
| 2026-04-25 17:20 | 52.61157 | 8.87288 | 7995 ft | 108 kts | 210° |
| 2026-04-25 17:20 | 52.60492 | 8.86712 | 7994 ft | 108 kts | 210° |
| 2026-04-25 17:20 | 52.59828 | 8.86137 | 7993 ft | 108 kts | 210° |
| 2026-04-25 17:21 | 52.59171 | 8.85569 | 7993 ft | 108 kts | 210° |
| 2026-04-25 17:21 | 52.58508 | 8.84995 | 7993 ft | 108 kts | 210° |
| 2026-04-25 17:21 | 52.57844 | 8.84422 | 7993 ft | 108 kts | 210° |
| 2026-04-25 17:21 | 52.57180 | 8.83849 | 7993 ft | 108 kts | 210° |
| 2026-04-25 17:22 | 52.56514 | 8.83274 | 7993 ft | 108 kts | 210° |
| 2026-04-25 17:22 | 52.56289 | 8.83080 | 7993 ft | 108 kts | 210° |
| 2026-04-25 17:22 | 52.55181 | 8.82123 | 7993 ft | 108 kts | 210° |
| 2026-04-25 17:22 | 52.54516 | 8.81548 | 7993 ft | 108 kts | 210° |
| 2026-04-25 17:23 | 52.53851 | 8.80975 | 7992 ft | 108 kts | 210° |
| 2026-04-25 17:23 | 52.53186 | 8.80403 | 7992 ft | 108 kts | 210° |
| 2026-04-25 17:23 | 52.52521 | 8.79831 | 7994 ft | 108 kts | 210° |
| 2026-04-25 17:23 | 52.51858 | 8.79260 | 7993 ft | 108 kts | 210° |
| 2026-04-25 17:24 | 52.51194 | 8.78687 | 7993 ft | 108 kts | 210° |
| 2026-04-25 17:24 | 52.50531 | 8.78116 | 7993 ft | 108 kts | 210° |
| 2026-04-25 17:24 | 52.49867 | 8.77544 | 7993 ft | 108 kts | 210° |
| 2026-04-25 17:24 | 52.49203 | 8.76973 | 7993 ft | 108 kts | 210° |
| 2026-04-25 17:25 | 52.48777 | 8.76608 | 7993 ft | 108 kts | 210° |
| 2026-04-25 17:25 | 52.47887 | 8.75838 | 8112 ft | 111 kts | 229° |
| 2026-04-25 17:25 | 52.47198 | 8.75245 | 8109 ft | 112 kts | 228° |
| 2026-04-25 17:25 | 52.46503 | 8.74650 | 8105 ft | 113 kts | 227° |
| 2026-04-25 17:26 | 52.45809 | 8.74055 | 8106 ft | 113 kts | 228° |
| 2026-04-25 17:26 | 52.45114 | 8.73460 | 8104 ft | 112 kts | 228° |
| 2026-04-25 17:26 | 52.44410 | 8.72852 | 8106 ft | 116 kts | 227° |
| 2026-04-25 17:26 | 52.43696 | 8.72241 | 8092 ft | 115 kts | 226° |
| 2026-04-25 17:27 | 52.42982 | 8.71630 | 8093 ft | 116 kts | 226° |
| 2026-04-25 17:27 | 52.42269 | 8.71020 | 8094 ft | 115 kts | 226° |
| 2026-04-25 17:27 | 52.41559 | 8.70411 | 8093 ft | 115 kts | 226° |
| 2026-04-25 17:27 | 52.41327 | 8.70212 | 8092 ft | 116 kts | 225° |
| 2026-04-25 17:28 | 52.40139 | 8.69194 | 8088 ft | 116 kts | 225° |
| 2026-04-25 17:28 | 52.39419 | 8.68578 | 8088 ft | 117 kts | 225° |
| 2026-04-25 17:28 | 52.38697 | 8.67962 | 8097 ft | 117 kts | 225° |
| 2026-04-25 17:28 | 52.37975 | 8.67344 | 8092 ft | 117 kts | 225° |
| 2026-04-25 17:29 | 52.37253 | 8.66725 | 8094 ft | 117 kts | 225° |
| 2026-04-25 17:29 | 52.36524 | 8.66103 | 8094 ft | 118 kts | 225° |
| 2026-04-25 17:29 | 52.35795 | 8.65480 | 8097 ft | 118 kts | 225° |
| 2026-04-25 17:29 | 52.35064 | 8.64856 | 8093 ft | 119 kts | 225° |
| 2026-04-25 17:30 | 52.34331 | 8.64230 | 8094 ft | 119 kts | 225° |
| 2026-04-25 17:30 | 52.33607 | 8.63612 | 8092 ft | 119 kts | 225° |
| 2026-04-25 17:30 | 52.32873 | 8.62985 | 8091 ft | 119 kts | 225° |
| 2026-04-25 17:30 | 52.32142 | 8.62364 | 8092 ft | 118 kts | 225° |
| 2026-04-25 17:31 | 52.31412 | 8.61742 | 8089 ft | 118 kts | 225° |
| 2026-04-25 17:31 | 52.30682 | 8.61119 | 8106 ft | 119 kts | 225° |
| 2026-04-25 17:31 | 52.29947 | 8.60491 | 8099 ft | 120 kts | 225° |
| 2026-04-25 17:31 | 52.29209 | 8.59863 | 8103 ft | 120 kts | 225° |
| 2026-04-25 17:32 | 52.28470 | 8.59233 | 8103 ft | 120 kts | 225° |
| 2026-04-25 17:32 | 52.27740 | 8.58580 | 8104 ft | 116 kts | 233° |
| 2026-04-25 17:32 | 52.27229 | 8.57680 | 8109 ft | 103 kts | 255° |
| 2026-04-25 17:32 | 52.26949 | 8.56668 | 8110 ft | 95 kts | 265° |
| 2026-04-25 17:33 | 52.26780 | 8.55999 | 8111 ft | 96 kts | 264° |
| 2026-04-25 17:33 | 52.26530 | 8.54978 | 8111 ft | 97 kts | 264° |
| 2026-04-25 17:33 | 52.26196 | 8.53618 | 8108 ft | 97 kts | 264° |
| 2026-04-25 17:33 | 52.25945 | 8.52597 | 8108 ft | 96 kts | 264° |
| 2026-04-25 17:34 | 52.25776 | 8.51909 | 8109 ft | 96 kts | 264° |
| 2026-04-25 17:34 | 52.25519 | 8.50836 | 7947 ft | 107 kts | 263° |
| 2026-04-25 17:34 | 52.25241 | 8.49703 | 7759 ft | 111 kts | 263° |
| 2026-04-25 17:34 | 52.24951 | 8.48527 | 7567 ft | 113 kts | 262° |
| 2026-04-25 17:35 | 52.24652 | 8.47318 | 7367 ft | 114 kts | 262° |
| 2026-04-25 17:35 | 52.24360 | 8.46140 | 7242 ft | 111 kts | 262° |
| 2026-04-25 17:35 | 52.24075 | 8.44993 | 7159 ft | 109 kts | 263° |
| 2026-04-25 17:35 | 52.23790 | 8.43829 | 7021 ft | 112 kts | 262° |
| 2026-04-25 17:36 | 52.23497 | 8.42638 | 6862 ft | 114 kts | 262° |
| 2026-04-25 17:36 | 52.23202 | 8.41445 | 6718 ft | 113 kts | 262° |
| 2026-04-25 17:36 | 52.22905 | 8.40244 | 6563 ft | 114 kts | 262° |
| 2026-04-25 17:36 | 52.22611 | 8.39055 | 6414 ft | 115 kts | 262° |
| 2026-04-25 17:37 | 52.22310 | 8.37836 | 6259 ft | 117 kts | 260° |
| 2026-04-25 17:37 | 52.22004 | 8.36597 | 6108 ft | 119 kts | 260° |
| 2026-04-25 17:37 | 52.21696 | 8.35348 | 5946 ft | 118 kts | 259° |
| 2026-04-25 17:37 | 52.21383 | 8.34104 | 5704 ft | 123 kts | 259° |
| 2026-04-25 17:38 | 52.21064 | 8.32798 | 5486 ft | 124 kts | 258° |
| 2026-04-25 17:38 | 52.20851 | 8.31947 | 5380 ft | 121 kts | 258° |
| 2026-04-25 17:38 | 52.20432 | 8.30263 | 5176 ft | 119 kts | 259° |
| 2026-04-25 17:38 | 52.20124 | 8.29000 | 5018 ft | 119 kts | 262° |
| 2026-04-25 17:39 | 52.20037 | 8.27749 | 4913 ft | 108 kts | 282° |
| 2026-04-25 17:39 | 52.20086 | 8.26542 | 4828 ft | 105 kts | 282° |
| 2026-04-25 17:39 | 52.20129 | 8.25359 | 4750 ft | 104 kts | 282° |
| 2026-04-25 17:39 | 52.20173 | 8.24184 | 4675 ft | 103 kts | 282° |
| 2026-04-25 17:40 | 52.20216 | 8.23017 | 4598 ft | 103 kts | 283° |
| 2026-04-25 17:40 | 52.20256 | 8.21865 | 4525 ft | 101 kts | 283° |
| 2026-04-25 17:40 | 52.20301 | 8.20738 | 4457 ft | 100 kts | 282° |
| 2026-04-25 17:40 | 52.20342 | 8.19613 | 4387 ft | 99 kts | 282° |
| 2026-04-25 17:41 | 52.20384 | 8.18493 | 4324 ft | 100 kts | 282° |
| 2026-04-25 17:41 | 52.20427 | 8.17351 | 4251 ft | 102 kts | 281° |
| 2026-04-25 17:41 | 52.20470 | 8.16194 | 4178 ft | 103 kts | 281° |
| 2026-04-25 17:41 | 52.20514 | 8.15021 | 4103 ft | 104 kts | 281° |
| 2026-04-25 17:42 | 52.20557 | 8.13840 | 4027 ft | 105 kts | 281° |
| 2026-04-25 17:42 | 52.20600 | 8.12661 | 3941 ft | 105 kts | 282° |
| 2026-04-25 17:42 | 52.20645 | 8.11447 | 3805 ft | 109 kts | 281° |
| 2026-04-25 17:42 | 52.20689 | 8.10200 | 3673 ft | 111 kts | 280° |
| 2026-04-25 17:43 | 52.20733 | 8.08943 | 3529 ft | 111 kts | 281° |
| 2026-04-25 17:43 | 52.20777 | 8.07680 | 3388 ft | 112 kts | 280° |
| 2026-04-25 17:43 | 52.20823 | 8.06408 | 3242 ft | 113 kts | 279° |
| 2026-04-25 17:43 | 52.20872 | 8.05127 | 3070 ft | 113 kts | 280° |
| 2026-04-25 17:44 | 52.20823 | 8.03847 | 2988 ft | 115 kts | 261° |
| 2026-04-25 17:44 | 52.20626 | 8.02634 | 2982 ft | 108 kts | 261° |
| 2026-04-25 17:44 | 52.20409 | 8.01472 | 2987 ft | 107 kts | 262° |
| 2026-04-25 17:44 | 52.20186 | 8.00317 | 2993 ft | 109 kts | 261° |
| 2026-04-25 17:45 | 52.19949 | 7.99140 | 2983 ft | 108 kts | 260° |
| 2026-04-25 17:45 | 52.19785 | 7.98358 | 2987 ft | 108 kts | 260° |
| 2026-04-25 17:45 | 52.19461 | 7.96835 | 2984 ft | 106 kts | 260° |
| 2026-04-25 17:45 | 52.19223 | 7.95700 | 2982 ft | 106 kts | 260° |
| 2026-04-25 17:46 | 52.18980 | 7.94559 | 2984 ft | 107 kts | 260° |
| 2026-04-25 17:46 | 52.18741 | 7.93416 | 2982 ft | 107 kts | 259° |
| 2026-04-25 17:46 | 52.18501 | 7.92282 | 2984 ft | 105 kts | 259° |
| 2026-04-25 17:46 | 52.18258 | 7.91137 | 2917 ft | 110 kts | 260° |
| 2026-04-25 17:47 | 52.18004 | 7.89942 | 2778 ft | 113 kts | 259° |
| 2026-04-25 17:47 | 52.17747 | 7.88699 | 2613 ft | 117 kts | 258° |
| 2026-04-25 17:47 | 52.17477 | 7.87447 | 2453 ft | 117 kts | 258° |
| 2026-04-25 17:47 | 52.17215 | 7.86191 | 2292 ft | 117 kts | 259° |
| 2026-04-25 17:48 | 52.16674 | 7.83646 | 1967 ft | 120 kts | 258° |
| 2026-04-25 17:48 | 52.16408 | 7.82372 | 1799 ft | 117 kts | 257° |
| 2026-04-25 17:48 | 52.16144 | 7.81140 | 1641 ft | 113 kts | 260° |
| 2026-04-25 17:49 | 52.15893 | 7.79948 | 1486 ft | 111 kts | 257° |
| 2026-04-25 17:49 | 52.15647 | 7.78778 | 1339 ft | 106 kts | 260° |
| 2026-04-25 17:49 | 52.15409 | 7.77667 | 1199 ft | 102 kts | 259° |
| 2026-04-25 17:49 | 52.15188 | 7.76615 | 1052 ft | 92 kts | 259° |
| 2026-04-25 17:50 | 52.14992 | 7.75696 | 939 ft | 82 kts | 260° |
| 2026-04-25 17:50 | 52.14813 | 7.74825 | 835 ft | 82 kts | 259° |
| 2026-04-25 17:50 | 52.14626 | 7.73967 | 738 ft | 79 kts | 256° |
| 2026-04-25 17:50 | 52.14461 | 7.73194 | 645 ft | 66 kts | 256° |
| 2026-04-25 17:51 | 52.14302 | 7.72456 | 563 ft | 73 kts | 257° |
| 2026-04-25 17:51 | 52.14126 | 7.71682 | 490 ft | 68 kts | 251° |
| 2026-04-25 17:51 | 52.13974 | 7.70950 | 408 ft | 69 kts | 258° |
| 2026-04-25 17:51 | 52.13828 | 7.70210 | 266 ft | 66 kts | 259° |
| 2026-04-25 17:52 | 52.13687 | 7.69552 | 176 ft | 57 kts | 248° |
| 2026-04-25 17:52 | 52.13617 | 7.69220 | 166 ft | 37 kts | 255° |
| 2026-04-25 17:52 | 52.13534 | 7.68813 | 161 ft | 27 kts | 252° |
| 2026-04-25 17:52 | 52.13466 | 7.68483 | 163 ft | 36 kts | 251° |
| 2026-04-25 17:53 | 52.13383 | 7.68263 | 164 ft | 17 kts | 187° |
| 2026-04-25 17:53 | 52.13276 | 7.68311 | 164 ft | 15 kts | 160° |
| 2026-04-25 17:53 | 52.13197 | 7.68354 | 165 ft | 6 kts | 160° |
| 2026-04-25 17:53 | 52.13164 | 7.68374 | 164 ft | 6 kts | 162° |
| 2026-04-25 17:54 | 52.13119 | 7.68400 | 164 ft | 7 kts | 154° |
| 2026-04-25 17:54 | 52.13104 | 7.68489 | 162 ft | 10 kts | 92° |
| 2026-04-25 17:54 | 52.13104 | 7.68567 | 162 ft | 2 kts | 93° |
| 2026-04-25 17:54 | 52.13103 | 7.68585 | 162 ft | 5 kts | 94° |
| 2026-04-25 17:55 | 52.13082 | 7.68630 | 161 ft | 5 kts | 79° |
| 2026-04-25 17:55 | 52.13082 | 7.68697 | 161 ft | 8 kts | 89° |
| 2026-04-25 17:55 | 52.13084 | 7.68738 | 161 ft | 2 kts | 27° |
| 2026-04-25 17:55 | 52.13095 | 7.68737 | 161 ft | 0 kts | 357° |